Time;durP1;ratioP1;P1;durP2;ratioP2;P2;SDS_P1;SDS_P2;PMS_P1;PMS_P2;Temp;Humidity;BMP_temperature;BMP_pressure;BME280_temperature;BME280_humidity;BME280_pressure;Samples;Min_cycle;Max_cycle;Signal;HPM_P1;HPM_P2
2021/03/11 00:02:00;;;;;;;;;;;14.90;57.80;;;;;;4916711;29;19955;-58
2021/03/11 00:04:25;;;;;;;;;;;14.90;57.90;;;;;;4916677;29;19911;-58
2021/03/11 00:06:51;;;;;;;;;;;14.90;57.90;;;;;;4916679;29;19911;-58
2021/03/11 00:09:16;;;;;;;;;;;15.60;58.30;;;;;;4916740;29;19962;-58
2021/03/11 00:11:42;;;;;;;;;;;14.70;57.80;;;;;;4916707;29;19911;-57
2021/03/11 00:14:07;;;;;;;;;;;14.80;57.90;;;;;;4916329;29;19914;-58
2021/03/11 00:16:33;;;;;;;;;;;14.80;58.60;;;;;;4916517;29;19915;-58
2021/03/11 00:18:58;;;;;;;;;;;15.60;58.40;;;;;;4916642;29;19918;-58
2021/03/11 00:21:24;;;;;;;;;;;14.70;57.90;;;;;;4916283;29;20355;-57
2021/03/11 00:23:49;;;;;;;;;;;14.80;58.10;;;;;;4916350;29;19914;-57
2021/03/11 00:26:15;;;;;;;;;;;14.70;57.90;;;;;;4916209;29;20394;-58
2021/03/11 00:28:41;;;;;;;;;;;14.80;58.10;;;;;;4916452;29;19907;-58
2021/03/11 00:31:06;;;;;;;;;;;14.80;58.00;;;;;;4916153;29;19959;-59
2021/03/11 00:33:32;;;;;;;;;;;14.60;57.90;;;;;;4916175;29;19915;-57
2021/03/11 00:35:57;;;;;;;;;;;14.80;58.00;;;;;;4916176;29;19907;-58
2021/03/11 00:38:23;;;;;;;;;;;14.80;58.10;;;;;;4916279;29;19907;-58
2021/03/11 00:40:48;;;;;;;;;;;14.80;58.10;;;;;;4916005;29;19907;-58
2021/03/11 00:43:14;;;;;;;;;;;15.10;58.30;;;;;;4916304;29;20002;-58
2021/03/11 00:45:40;;;;;;;;;;;14.60;58.00;;;;;;4916018;29;19907;-58
2021/03/11 00:48:06;;;;;;;;;;;14.70;58.10;;;;;;4915974;29;19907;-58
2021/03/11 00:50:38;;;;;;;;;;;14.70;58.10;;;;;;4915793;29;19922;-57
2021/03/11 00:53:10;;;;;;;;;;;14.60;58.10;;;;;;4915991;29;20303;-57
2021/03/11 00:55:35;;;;;;;;;;;14.70;58.10;;;;;;4916004;29;19915;-58
2021/03/11 00:58:01;;;;;;;;;;;14.70;58.20;;;;;;4915624;29;20028;-58
2021/03/11 01:00:26;;;;;;;;;;;14.70;58.20;;;;;;4916091;29;19911;-57
2021/03/11 01:02:52;;;;;;;;;;;14.70;58.20;;;;;;4915897;29;19915;-58
2021/03/11 01:05:25;;;;;;;;;;;14.70;58.30;;;;;;4916224;29;19914;-58
2021/03/11 01:07:50;;;;;;;;;;;14.70;58.20;;;;;;4917778;29;19938;-57
2021/03/11 01:10:16;;;;;;;;;;;14.60;58.20;;;;;;4919655;29;20457;-58
2021/03/11 01:12:42;;;;;;;;;;;14.70;58.30;;;;;;4919831;29;19915;-57
2021/03/11 01:15:07;;;;;;;;;;;14.50;58.20;;;;;;4919761;29;19965;-57
2021/03/11 01:17:33;;;;;;;;;;;14.60;58.20;;;;;;4919384;29;19915;-58
2021/03/11 01:19:59;;;;;;;;;;;14.50;58.20;;;;;;4919488;29;19911;-58
2021/03/11 01:22:24;;;;;;;;;;;14.50;58.30;;;;;;4919534;29;19915;-58
2021/03/11 01:24:50;;;;;;;;;;;14.60;58.40;;;;;;4919586;29;19930;-58
2021/03/11 01:27:15;;;;;;;;;;;14.60;58.40;;;;;;4919318;29;19907;-58
2021/03/11 01:29:42;;;;;;;;;;;14.60;58.40;;;;;;4919348;29;19907;-58
2021/03/11 01:32:08;;;;;;;;;;;14.60;58.40;;;;;;4919547;29;19914;-58
2021/03/11 01:34:33;;;;;;;;;;;14.50;58.40;;;;;;4919243;29;19954;-58
2021/03/11 01:36:59;;;;;;;;;;;14.60;58.40;;;;;;4919152;29;20017;-58
2021/03/11 01:39:24;;;;;;;;;;;14.60;58.40;;;;;;4919425;29;19907;-58
2021/03/11 01:41:50;;;;;;;;;;;14.60;58.40;;;;;;4918956;29;19913;-58
2021/03/11 01:44:15;;;;;;;;;;;14.60;58.40;;;;;;4919254;29;19907;-58
2021/03/11 01:46:41;;;;;;;;;;;15.00;58.80;;;;;;4919074;29;19970;-58
2021/03/11 01:49:06;;;;;;;;;;;14.50;58.50;;;;;;4919297;29;19911;-57
2021/03/11 01:51:32;;;;;;;;;;;14.50;58.50;;;;;;4918595;29;19926;-58
2021/03/11 01:53:58;;;;;;;;;;;14.50;58.60;;;;;;4918915;29;19907;-57
2021/03/11 01:56:24;;;;;;;;;;;14.50;58.60;;;;;;4918545;29;20028;-58
2021/03/11 01:58:50;;;;;;;;;;;14.40;58.50;;;;;;4917234;29;19911;-57
2021/03/11 02:01:15;;;;;;;;;;;14.50;58.60;;;;;;4918755;29;19908;-57
2021/03/11 02:03:41;;;;;;;;;;;14.50;58.60;;;;;;4919023;29;19907;-59
2021/03/11 02:06:06;;;;;;;;;;;14.50;58.70;;;;;;4918745;29;19918;-58
2021/03/11 02:08:32;;;;;;;;;;;14.50;58.70;;;;;;4918715;29;19915;-58
2021/03/11 02:10:58;;;;;;;;;;;14.30;58.60;;;;;;4918491;29;19914;-58
2021/03/11 02:13:41;;;;;;;;;;;14.50;58.70;;;;;;4918899;29;19950;-57
2021/03/11 02:16:15;;;;;;;;;;;14.50;58.60;;;;;;4918425;29;19914;-58
2021/03/11 02:18:46;;;;;;;;;;;14.50;58.70;;;;;;4917420;29;19907;-58
2021/03/11 02:21:13;;;;;;;;;;;14.50;58.60;;;;;;4918389;29;19922;-57
2021/03/11 02:23:39;;;;;;;;;;;14.50;58.70;;;;;;4918624;29;20413;-58
2021/03/11 02:26:07;;;;;;;;;;;14.50;59.40;;;;;;4918416;29;19938;-58
2021/03/11 02:28:37;;;;;;;;;;;14.50;58.70;;;;;;4918593;29;19911;-57
2021/03/11 02:31:03;;;;;;;;;;;14.50;58.70;;;;;;4918317;29;19907;-58
2021/03/11 02:33:30;;;;;;;;;;;14.40;58.70;;;;;;4918468;29;19938;-58
2021/03/11 02:35:57;;;;;;;;;;;14.30;58.70;;;;;;4918221;29;20281;-57
2021/03/11 02:38:23;;;;;;;;;;;14.20;58.60;;;;;;4917201;29;19921;-57
2021/03/11 02:40:49;;;;;;;;;;;14.30;58.70;;;;;;4918228;29;19907;-58
2021/03/11 02:43:15;;;;;;;;;;;14.50;58.80;;;;;;4918336;29;19962;-59
2021/03/11 02:45:41;;;;;;;;;;;14.30;58.70;;;;;;4917952;29;20439;-58
2021/03/11 02:48:08;;;;;;;;;;;14.30;58.70;;;;;;4918102;29;19954;-58
2021/03/11 02:50:35;;;;;;;;;;;14.40;58.80;;;;;;4917801;29;19923;-58
2021/03/11 02:53:01;;;;;;;;;;;14.40;58.90;;;;;;4918235;29;19914;-58
2021/03/11 02:55:29;;;;;;;;;;;14.40;58.90;;;;;;4917633;29;19911;-58
2021/03/11 02:57:55;;;;;;;;;;;14.20;58.80;;;;;;4917703;29;19970;-58
2021/03/11 03:00:21;;;;;;;;;;;14.30;58.90;;;;;;4900751;29;19906;-56
2021/03/11 03:02:47;;;;;;;;;;;14.30;58.80;;;;;;4917592;29;19911;-58
2021/03/11 03:05:15;;;;;;;;;;;14.30;58.90;;;;;;4917606;29;19911;-57
2021/03/11 03:07:44;;;;;;;;;;;14.20;58.90;;;;;;4917617;29;20362;-58
2021/03/11 03:10:10;;;;;;;;;;;14.20;58.80;;;;;;4917412;29;19955;-57
2021/03/11 03:12:39;;;;;;;;;;;14.40;59.00;;;;;;4917650;29;19955;-57
2021/03/11 03:15:06;;;;;;;;;;;14.40;58.90;;;;;;4917568;29;19961;-57
2021/03/11 03:17:32;;;;;;;;;;;14.40;59.00;;;;;;4917269;29;20362;-58
2021/03/11 03:19:57;;;;;;;;;;;14.40;59.00;;;;;;4917225;29;19911;-57
2021/03/11 03:22:23;;;;;;;;;;;14.90;59.20;;;;;;4917367;29;19958;-58
2021/03/11 03:24:49;;;;;;;;;;;14.50;59.10;;;;;;4917210;29;19945;-58
2021/03/11 03:27:15;;;;;;;;;;;14.40;59.10;;;;;;4917383;29;20189;-58
2021/03/11 03:29:41;;;;;;;;;;;14.30;59.00;;;;;;4916973;29;19907;-56
2021/03/11 03:32:07;;;;;;;;;;;14.30;59.00;;;;;;4917461;29;19918;-57
2021/03/11 03:34:32;;;;;;;;;;;14.30;59.10;;;;;;4917106;29;19918;-56
2021/03/11 03:36:58;;;;;;;;;;;14.30;59.00;;;;;;4900036;29;19919;-57
2021/03/11 03:39:24;;;;;;;;;;;14.30;59.20;;;;;;4916890;29;19914;-57
2021/03/11 03:41:50;;;;;;;;;;;14.30;59.10;;;;;;4917035;29;19907;-58
2021/03/11 03:44:18;;;;;;;;;;;14.20;59.10;;;;;;4916886;29;20372;-58
2021/03/11 03:46:45;;;;;;;;;;;14.20;59.10;;;;;;4916970;29;19949;-58
2021/03/11 03:49:11;;;;;;;;;;;14.30;59.20;;;;;;4917186;29;20260;-57
2021/03/11 03:51:39;;;;;;;;;;;14.50;59.40;;;;;;4916543;29;19962;-57
2021/03/11 03:54:08;;;;;;;;;;;14.30;59.30;;;;;;4917081;29;19907;-58
2021/03/11 03:56:33;;;;;;;;;;;14.30;59.20;;;;;;4916878;29;19915;-57
2021/03/11 03:59:08;;;;;;;;;;;14.10;59.20;;;;;;4916646;29;20391;-57
2021/03/11 04:01:34;;;;;;;;;;;14.30;59.20;;;;;;4916729;29;19907;-58
2021/03/11 04:04:02;;;;;;;;;;;14.20;59.20;;;;;;4916785;29;20358;-57
2021/03/11 04:06:29;;;;;;;;;;;14.20;59.20;;;;;;4916837;29;19966;-56
2021/03/11 04:08:55;;;;;;;;;;;14.20;59.30;;;;;;4916570;29;19954;-57
2021/03/11 04:11:20;;;;;;;;;;;14.20;59.20;;;;;;4916751;29;19907;-58
2021/03/11 04:13:46;;;;;;;;;;;14.20;59.20;;;;;;4916793;29;20006;-58
2021/03/11 04:16:13;;;;;;;;;;;14.30;59.30;;;;;;4916421;29;20452;-58
2021/03/11 04:18:39;;;;;;;;;;;14.20;59.30;;;;;;4916582;29;19914;-57
2021/03/11 04:21:06;;;;;;;;;;;14.10;59.20;;;;;;4916334;29;20359;-57
2021/03/11 04:23:32;;;;;;;;;;;14.20;59.30;;;;;;4916398;29;19914;-57
2021/03/11 04:25:58;;;;;;;;;;;14.20;59.30;;;;;;4916377;29;20006;-57
2021/03/11 04:28:24;;;;;;;;;;;14.20;59.40;;;;;;4916556;29;19968;-58
2021/03/11 04:30:49;;;;;;;;;;;14.10;59.40;;;;;;4916549;29;19985;-57
2021/03/11 04:33:15;;;;;;;;;;;14.10;59.30;;;;;;4916308;29;20345;-58
2021/03/11 04:35:41;;;;;;;;;;;14.20;59.40;;;;;;4914947;29;20365;-58
2021/03/11 04:38:06;;;;;;;;;;;14.20;60.00;;;;;;4916379;29;20018;-56
2021/03/11 04:40:33;;;;;;;;;;;14.20;59.40;;;;;;4916479;29;19915;-57
2021/03/11 04:42:59;;;;;;;;;;;14.20;59.40;;;;;;4915588;29;19915;-57
2021/03/11 04:45:24;;;;;;;;;;;14.10;59.40;;;;;;4915934;29;19907;-57
2021/03/11 04:47:50;;;;;;;;;;;14.20;59.50;;;;;;4914903;29;19913;-58
2021/03/11 04:50:16;;;;;;;;;;;14.20;59.60;;;;;;4916179;29;19994;-57
2021/03/11 04:52:41;;;;;;;;;;;14.20;59.60;;;;;;4915541;29;19923;-58
2021/03/11 04:55:07;;;;;;;;;;;14.30;59.70;;;;;;4916231;29;19911;-58
2021/03/11 04:57:33;;;;;;;;;;;14.20;59.60;;;;;;4915964;29;20401;-57
2021/03/11 04:59:59;;;;;;;;;;;14.20;59.60;;;;;;4916024;29;19915;-56
2021/03/11 05:02:30;;;;;;;;;;;14.10;59.60;;;;;;4916060;29;19963;-58
2021/03/11 05:04:56;;;;;;;;;;;14.10;59.60;;;;;;4914527;29;19907;-58
2021/03/11 05:07:21;;;;;;;;;;;14.10;59.60;;;;;;4915904;29;19990;-57
2021/03/11 05:09:47;;;;;;;;;;;14.40;59.70;;;;;;4915566;29;19911;-58
2021/03/11 05:12:12;;;;;;;;;;;14.40;59.70;;;;;;4916000;29;19911;-57
2021/03/11 05:14:38;;;;;;;;;;;14.50;59.80;;;;;;4916075;29;19907;-58
2021/03/11 05:17:03;;;;;;;;;;;14.20;59.70;;;;;;4915817;29;19919;-57
2021/03/11 05:19:29;;;;;;;;;;;14.10;59.70;;;;;;4915534;29;19913;-58
2021/03/11 05:21:54;;;;;;;;;;;14.40;59.90;;;;;;4915684;29;19915;-58
2021/03/11 05:24:19;;;;;;;;;;;14.00;59.60;;;;;;4916003;29;20362;-58
2021/03/11 05:26:45;;;;;;;;;;;14.10;59.60;;;;;;4915705;29;19978;-56
2021/03/11 05:29:10;;;;;;;;;;;14.70;60.00;;;;;;4915915;29;19907;-57
2021/03/11 05:31:36;;;;;;;;;;;13.90;59.60;;;;;;4915913;29;19907;-58
2021/03/11 05:34:01;;;;;;;;;;;14.10;59.70;;;;;;4915557;29;19947;-58
2021/03/11 05:36:27;;;;;;;;;;;14.10;59.70;;;;;;4915445;29;19919;-58
2021/03/11 05:38:52;;;;;;;;;;;13.90;59.50;;;;;;4915692;29;19918;-57
2021/03/11 05:41:20;;;;;;;;;;;14.10;59.70;;;;;;4915557;29;20252;-56
2021/03/11 05:43:45;;;;;;;;;;;14.20;59.80;;;;;;4915767;29;19946;-57
2021/03/11 05:46:11;;;;;;;;;;;14.10;59.70;;;;;;4915765;29;19970;-57
2021/03/11 05:48:40;;;;;;;;;;;14.20;59.90;;;;;;4915702;29;19914;-58
2021/03/11 05:51:06;;;;;;;;;;;14.20;59.80;;;;;;4915199;29;19962;-57
2021/03/11 05:53:33;;;;;;;;;;;14.20;59.90;;;;;;4915611;29;19911;-57
2021/03/11 05:55:58;;;;;;;;;;;14.00;59.90;;;;;;4919087;29;19915;-58
2021/03/11 05:58:24;;;;;;;;;;;14.20;60.00;;;;;;4918636;29;20302;-56
2021/03/11 06:00:49;;;;;;;;;;;14.30;60.00;;;;;;4917559;29;20109;-57
2021/03/11 06:03:15;;;;;;;;;;;14.20;60.60;;;;;;4918938;29;19955;-58
2021/03/11 06:05:41;;;;;;;;;;;14.20;60.20;;;;;;4918801;29;19921;-58
2021/03/11 06:08:07;;;;;;;;;;;14.30;60.40;;;;;;4918502;29;20374;-57
2021/03/11 06:10:33;;;;;;;;;;;14.50;60.40;;;;;;4918849;29;19911;-56
2021/03/11 06:12:59;;;;;;;;;;;14.60;60.30;;;;;;4918503;29;19933;-57
2021/03/11 06:15:30;;;;;;;;;;;14.60;60.00;;;;;;4918572;29;19911;-56
2021/03/11 06:17:57;;;;;;;;;;;14.80;59.90;;;;;;4918360;29;19957;-56
2021/03/11 06:20:23;;;;;;;;;;;14.60;59.60;;;;;;4918484;29;20451;-57
2021/03/11 06:22:48;;;;;;;;;;;15.50;59.70;;;;;;4917927;29;20005;-56
2021/03/11 06:25:14;;;;;;;;;;;15.10;59.30;;;;;;4918180;29;19914;-56
2021/03/11 06:27:40;;;;;;;;;;;15.20;59.30;;;;;;4918475;29;20009;-56
2021/03/11 06:30:06;;;;;;;;;;;15.10;59.10;;;;;;4918173;29;19998;-56
2021/03/11 06:32:50;;;;;;;;;;;15.30;59.00;;;;;;4918249;29;19907;-56
2021/03/11 06:35:20;;;;;;;;;;;15.20;58.80;;;;;;4918513;29;19954;-57
2021/03/11 06:37:48;;;;;;;;;;;15.50;58.80;;;;;;4918127;29;20266;-57
2021/03/11 06:40:13;;;;;;;;;;;15.30;58.60;;;;;;4918358;29;19907;-56
2021/03/11 06:42:39;;;;;;;;;;;15.40;58.50;;;;;;4917810;29;19954;-57
2021/03/11 06:45:18;;;;;;;;;;;15.40;58.40;;;;;;4918084;29;19914;-57
2021/03/11 06:47:44;;;;;;;;;;;15.60;58.40;;;;;;4918023;29;20286;-55
2021/03/11 06:50:09;;;;;;;;;;;15.40;58.30;;;;;;4918203;29;19907;-56
2021/03/11 06:52:35;;;;;;;;;;;15.70;58.40;;;;;;4917509;29;19965;-54
2021/03/11 06:55:03;;;;;;;;;;;15.50;58.30;;;;;;4917849;29;19938;-56
2021/03/11 06:57:36;;;;;;;;;;;15.70;58.20;;;;;;4917613;29;19915;-56
2021/03/11 07:00:18;;;;;;;;;;;15.70;58.10;;;;;;4917869;29;19998;-55
2021/03/11 07:02:50;;;;;;;;;;;15.70;58.20;;;;;;4917834;29;19911;-57
2021/03/11 07:05:16;;;;;;;;;;;15.70;58.20;;;;;;4917204;29;20318;-55
2021/03/11 07:07:41;;;;;;;;;;;15.70;58.30;;;;;;4916211;29;20050;-49
2021/03/11 07:10:07;;;;;;;;;;;15.60;58.20;;;;;;4917741;29;19907;-54
2021/03/11 07:12:49;;;;;;;;;;;15.70;58.10;;;;;;4909015;29;19966;-57
2021/03/11 07:15:15;;;;;;;;;;;15.70;58.10;;;;;;4898864;29;19963;-56
2021/03/11 07:17:40;;;;;;;;;;;15.70;58.10;;;;;;4898634;29;20014;-56
2021/03/11 07:20:06;;;;;;;;;;;15.60;58.00;;;;;;4898336;29;19908;-56
2021/03/11 07:22:39;;;;;;;;;;;15.70;57.90;;;;;;4882393;29;19995;-56
2021/03/11 07:25:23;;;;;;;;;;;15.70;57.90;;;;;;4898730;29;19947;-56
2021/03/11 07:27:49;;;;;;;;;;;15.80;58.10;;;;;;4898749;29;20270;-55
2021/03/11 07:30:15;;;;;;;;;;;15.80;58.20;;;;;;4898317;29;20006;-57
2021/03/11 07:32:40;;;;;;;;;;;15.80;58.10;;;;;;4898452;29;19947;-56
2021/03/11 07:35:06;;;;;;;;;;;15.90;58.20;;;;;;4897894;29;20269;-56
2021/03/11 07:37:32;;;;;;;;;;;15.70;58.10;;;;;;4898490;29;20023;-56
2021/03/11 07:39:58;;;;;;;;;;;15.70;58.30;;;;;;4898011;29;19915;-57
2021/03/11 07:42:24;;;;;;;;;;;15.60;58.40;;;;;;4898529;29;20025;-57
2021/03/11 07:44:50;;;;;;;;;;;15.60;58.40;;;;;;4897416;29;19942;-57
2021/03/11 07:47:15;;;;;;;;;;;15.60;58.50;;;;;;4897618;29;19932;-56
2021/03/11 07:49:42;;;;;;;;;;;15.60;58.50;;;;;;4897678;29;19954;-57
2021/03/11 07:52:14;;;;;;;;;;;15.60;58.50;;;;;;4896882;29;19923;-56
2021/03/11 07:54:39;;;;;;;;;;;15.60;58.50;;;;;;4878787;29;20388;-55
2021/03/11 07:57:05;;;;;;;;;;;15.60;58.50;;;;;;4862388;29;19959;-57
2021/03/11 07:59:31;;;;;;;;;;;15.60;58.50;;;;;;4879159;29;19908;-56
2021/03/11 08:01:59;;;;;;;;;;;15.60;58.50;;;;;;4879489;29;19967;-57
2021/03/11 08:04:25;;;;;;;;;;;15.60;58.40;;;;;;4862425;29;19908;-57
2021/03/11 08:06:51;;;;;;;;;;;15.40;58.10;;;;;;4879370;29;19915;-56
2021/03/11 08:09:35;;;;;;;;;;;15.60;58.30;;;;;;4879148;29;19907;-56
2021/03/11 08:12:20;;;;;;;;;;;15.60;58.20;;;;;;4879025;29;19907;-57
2021/03/11 08:14:45;;;;;;;;;;;15.60;58.20;;;;;;4879178;29;19908;-57
2021/03/11 08:17:29;;;;;;;;;;;15.40;58.10;;;;;;4878073;29;19918;-57
2021/03/11 08:19:55;;;;;;;;;;;15.60;58.30;;;;;;4879380;29;20411;-57
2021/03/11 08:22:40;;;;;;;;;;;15.50;58.30;;;;;;4879327;29;19915;-57
2021/03/11 08:25:05;;;;;;;;;;;15.50;58.40;;;;;;4862252;29;19955;-57
2021/03/11 08:27:31;;;;;;;;;;;15.30;58.30;;;;;;4879039;29;19908;-56
2021/03/11 08:29:57;;;;;;;;;;;15.40;58.40;;;;;;4879287;29;19914;-57
2021/03/11 08:32:41;;;;;;;;;;;15.40;58.40;;;;;;4878926;29;19975;-57
2021/03/11 08:35:30;;;;;;;;;;;15.40;58.30;;;;;;4878980;29;20295;-56
2021/03/11 08:37:55;;;;;;;;;;;15.40;58.30;;;;;;4868631;29;19934;-56
2021/03/11 08:40:34;;;;;;;;;;;15.40;58.50;;;;;;4878707;29;19915;-56
2021/03/11 08:43:00;;;;;;;;;;;15.40;58.40;;;;;;4877434;29;20003;-57
2021/03/11 08:45:34;;;;;;;;;;;15.20;58.40;;;;;;4878953;29;19952;-56
2021/03/11 08:48:13;;;;;;;;;;;15.40;58.50;;;;;;4878930;29;19971;-57
2021/03/11 08:50:40;;;;;;;;;;;15.40;58.60;;;;;;4879070;29;20282;-56
2021/03/11 08:53:05;;;;;;;;;;;15.40;58.60;;;;;;4879477;29;20268;-57
2021/03/11 08:55:34;;;;;;;;;;;15.40;58.60;;;;;;4862283;29;19914;-56
2021/03/11 08:57:59;;;;;;;;;;;15.50;58.40;;;;;;4878548;29;19920;-56
2021/03/11 09:00:44;;;;;;;;;;;15.40;58.30;;;;;;4878510;29;20048;-56
2021/03/11 09:03:28;;;;;;;;;;;15.60;58.10;;;;;;4878543;29;19908;-57
2021/03/11 09:05:53;;;;;;;;;;;15.60;57.90;;;;;;4878556;29;19911;-56
2021/03/11 09:08:19;;;;;;;;;;;15.70;57.90;;;;;;4878504;29;19915;-56
2021/03/11 09:10:44;;;;;;;;;;;15.80;57.70;;;;;;4878848;29;19915;-56
2021/03/11 09:13:13;;;;;;;;;;;15.80;57.50;;;;;;4878320;29;19915;-56
2021/03/11 09:15:39;;;;;;;;;;;15.80;57.40;;;;;;4878673;29;19975;-57
2021/03/11 09:18:05;;;;;;;;;;;15.70;57.40;;;;;;4878524;29;19987;-56
2021/03/11 09:20:30;;;;;;;;;;;15.80;57.20;;;;;;4878298;29;19950;-56
2021/03/11 09:22:56;;;;;;;;;;;16.00;57.20;;;;;;4877752;29;20283;-51
2021/03/11 09:25:23;;;;;;;;;;;15.90;57.10;;;;;;4877270;29;19969;-56
2021/03/11 09:27:52;;;;;;;;;;;15.90;57.10;;;;;;4877299;29;19950;-56
2021/03/11 09:30:18;;;;;;;;;;;16.00;57.00;;;;;;4880720;29;20022;-55
2021/03/11 09:32:44;;;;;;;;;;;16.00;57.00;;;;;;4881024;29;19912;-55
2021/03/11 09:35:10;;;;;;;;;;;15.80;56.90;;;;;;4881347;29;20354;-56
2021/03/11 09:37:48;;;;;;;;;;;16.00;57.10;;;;;;4880363;29;19923;-57
2021/03/11 09:40:17;;;;;;;;;;;16.00;57.00;;;;;;4881466;29;19928;-57
2021/03/11 09:43:01;;;;;;;;;;;16.00;57.00;;;;;;4881981;29;19946;-55
2021/03/11 09:45:31;;;;;;;;;;;16.00;56.90;;;;;;4881449;29;19915;-55
2021/03/11 09:47:56;;;;;;;;;;;16.00;56.90;;;;;;4881721;29;19908;-56
2021/03/11 09:50:21;;;;;;;;;;;15.90;56.90;;;;;;4881441;29;19912;-57
2021/03/11 09:53:01;;;;;;;;;;;16.00;56.90;;;;;;4882180;29;19920;-57
2021/03/11 09:55:26;;;;;;;;;;;16.00;56.80;;;;;;4881265;29;19908;-57
2021/03/11 09:57:59;;;;;;;;;;;15.90;56.90;;;;;;4881097;29;20408;-56
2021/03/11 10:00:24;;;;;;;;;;;16.00;56.80;;;;;;4881193;29;19918;-56
2021/03/11 10:02:51;;;;;;;;;;;16.00;56.80;;;;;;4881154;29;20291;-57
2021/03/11 10:05:17;;;;;;;;;;;16.10;56.90;;;;;;4881124;29;19934;-56
2021/03/11 10:07:42;;;;;;;;;;;16.00;56.90;;;;;;4881224;29;19911;-56
2021/03/11 10:10:12;;;;;;;;;;;16.00;56.90;;;;;;4880976;29;19919;-55
2021/03/11 10:12:39;;;;;;;;;;;16.00;56.60;;;;;;4881258;29;19908;-58
2021/03/11 10:15:10;;;;;;;;;;;15.80;56.60;;;;;;4879755;29;19911;-58
2021/03/11 10:17:35;;;;;;;;;;;16.10;56.70;;;;;;4881022;29;19959;-57
2021/03/11 10:20:20;;;;;;;;;;;16.30;56.80;;;;;;4879841;29;20395;-58
2021/03/11 10:22:45;;;;;;;;;;;16.20;56.40;;;;;;4864384;29;20359;-57
2021/03/11 10:25:15;;;;;;;;;;;16.30;56.60;;;;;;4880826;29;19915;-57
2021/03/11 10:27:43;;;;;;;;;;;16.30;56.50;;;;;;4880755;29;19914;-56
2021/03/11 10:30:10;;;;;;;;;;;16.30;56.70;;;;;;4880769;29;19912;-58
2021/03/11 10:32:36;;;;;;;;;;;16.30;56.50;;;;;;4880644;29;19908;-59
2021/03/11 10:35:03;;;;;;;;;;;16.30;56.40;;;;;;4880886;29;19912;-58
2021/03/11 10:37:32;;;;;;;;;;;16.40;56.30;;;;;;4880452;29;20294;-58
2021/03/11 10:39:59;;;;;;;;;;;16.40;56.10;;;;;;4879632;29;19916;-58
2021/03/11 10:42:26;;;;;;;;;;;16.40;56.30;;;;;;4880477;29;20024;-58
2021/03/11 10:44:56;;;;;;;;;;;16.10;56.10;;;;;;4880418;29;19914;-57
2021/03/11 10:47:21;;;;;;;;;;;16.40;56.10;;;;;;4880019;29;19958;-59
2021/03/11 10:49:47;;;;;;;;;;;16.40;56.10;;;;;;4879567;29;19975;-58
2021/03/11 10:52:13;;;;;;;;;;;16.50;56.10;;;;;;4881166;29;19926;-57
2021/03/11 10:54:41;;;;;;;;;;;16.50;55.90;;;;;;4880356;29;19940;-59
2021/03/11 10:57:14;;;;;;;;;;;16.50;55.90;;;;;;4880488;29;19960;-59
2021/03/11 10:59:55;;;;;;;;;;;16.50;55.90;;;;;;4863510;29;19907;-57
2021/03/11 11:02:21;;;;;;;;;;;16.50;55.80;;;;;;4880279;29;19990;-57
2021/03/11 11:04:47;;;;;;;;;;;16.20;55.60;;;;;;4878509;29;20353;-57
2021/03/11 11:07:12;;;;;;;;;;;16.70;55.90;;;;;;4879289;29;20010;-57
2021/03/11 11:09:39;;;;;;;;;;;16.60;55.60;;;;;;4879846;29;20016;-57
2021/03/11 11:12:08;;;;;;;;;;;16.60;55.60;;;;;;4879867;29;19984;-57
2021/03/11 11:14:34;;;;;;;;;;;16.60;55.60;;;;;;4879949;29;19995;-57
2021/03/11 11:17:00;;;;;;;;;;;16.50;55.60;;;;;;4880084;29;19955;-57
2021/03/11 11:19:25;;;;;;;;;;;16.50;55.60;;;;;;4880090;29;20325;-57
2021/03/11 11:21:51;;;;;;;;;;;16.50;55.50;;;;;;4879868;29;19908;-57
2021/03/11 11:24:16;;;;;;;;;;;16.50;55.60;;;;;;4879624;29;19915;-58
2021/03/11 11:26:42;;;;;;;;;;;16.50;55.60;;;;;;4879593;29;19934;-57
2021/03/11 11:29:08;;;;;;;;;;;16.50;55.70;;;;;;4880040;29;19966;-57
2021/03/11 11:31:40;;;;;;;;;;;16.40;55.60;;;;;;4879831;29;20379;-57
2021/03/11 11:34:06;;;;;;;;;;;16.40;55.70;;;;;;4879680;29;20346;-57
2021/03/11 11:36:32;;;;;;;;;;;16.40;55.70;;;;;;4879706;29;19990;-56
2021/03/11 11:38:57;;;;;;;;;;;16.50;55.80;;;;;;4879726;29;20339;-57
2021/03/11 11:41:23;;;;;;;;;;;16.30;55.80;;;;;;4879713;29;20362;-56
2021/03/11 11:43:48;;;;;;;;;;;16.20;55.70;;;;;;4879620;29;19919;-57
2021/03/11 11:46:14;;;;;;;;;;;16.30;55.80;;;;;;4879406;29;20364;-57
2021/03/11 11:48:39;;;;;;;;;;;16.30;55.80;;;;;;4879523;29;19908;-56
2021/03/11 11:51:05;;;;;;;;;;;16.10;55.60;;;;;;4879309;29;19958;-57
2021/03/11 11:53:30;;;;;;;;;;;16.20;56.40;;;;;;4879904;29;20396;-57
2021/03/11 11:55:56;;;;;;;;;;;16.10;55.70;;;;;;4862348;29;19907;-57
2021/03/11 11:58:21;;;;;;;;;;;16.00;55.70;;;;;;4879320;29;19927;-57
2021/03/11 12:00:47;;;;;;;;;;;16.20;55.70;;;;;;4879183;29;19915;-57
2021/03/11 12:03:13;;;;;;;;;;;16.20;55.80;;;;;;4879040;29;19914;-57
2021/03/11 12:05:39;;;;;;;;;;;15.70;55.50;;;;;;4879066;29;19912;-57
2021/03/11 12:08:04;;;;;;;;;;;16.20;55.80;;;;;;4879240;29;19934;-56
2021/03/11 12:10:30;;;;;;;;;;;16.20;55.90;;;;;;4878767;29;20363;-57
2021/03/11 12:12:55;;;;;;;;;;;16.20;55.90;;;;;;4879139;29;19908;-57
2021/03/11 12:15:21;;;;;;;;;;;16.10;55.80;;;;;;4879110;29;19970;-57
2021/03/11 12:17:46;;;;;;;;;;;16.10;56.00;;;;;;4878783;29;19916;-57
2021/03/11 12:20:12;;;;;;;;;;;15.80;55.80;;;;;;4879047;29;19959;-57
2021/03/11 12:22:38;;;;;;;;;;;16.10;56.00;;;;;;4879035;29;19942;-58
2021/03/11 12:25:03;;;;;;;;;;;16.10;56.10;;;;;;4878651;29;20300;-58
2021/03/11 12:27:29;;;;;;;;;;;16.10;56.10;;;;;;4878469;29;19912;-57
2021/03/11 12:29:54;;;;;;;;;;;16.10;56.00;;;;;;4878871;29;20006;-59
2021/03/11 12:32:20;;;;;;;;;;;16.00;56.20;;;;;;4878704;29;19914;-59
2021/03/11 12:34:46;;;;;;;;;;;16.20;56.30;;;;;;4878547;29;19959;-59
2021/03/11 12:37:12;;;;;;;;;;;16.20;56.30;;;;;;4878766;29;19923;-59
2021/03/11 12:39:37;;;;;;;;;;;16.00;56.20;;;;;;4878780;29;19907;-59
2021/03/11 12:42:03;;;;;;;;;;;16.20;56.10;;;;;;4878702;29;20006;-58
2021/03/11 12:44:29;;;;;;;;;;;16.30;56.10;;;;;;4878486;29;19920;-59
2021/03/11 12:46:54;;;;;;;;;;;17.00;56.30;;;;;;4878542;29;19915;-60
2021/03/11 12:49:20;;;;;;;;;;;16.20;55.90;;;;;;4878619;29;19907;-57
2021/03/11 12:51:45;;;;;;;;;;;16.30;56.10;;;;;;4879303;29;20291;-60
2021/03/11 12:54:10;;;;;;;;;;;16.70;56.10;;;;;;4878456;29;19919;-58
2021/03/11 12:56:36;;;;;;;;;;;16.50;55.90;;;;;;4878406;29;20394;-59
2021/03/11 12:59:01;;;;;;;;;;;16.50;55.80;;;;;;4878337;29;19971;-59
2021/03/11 13:01:28;;;;;;;;;;;16.40;55.60;;;;;;4878328;29;19915;-59
2021/03/11 13:03:53;;;;;;;;;;;16.60;55.70;;;;;;4880611;29;19911;-57
2021/03/11 13:06:19;;;;;;;;;;;16.30;55.50;;;;;;4882152;29;20006;-59
2021/03/11 13:08:45;;;;;;;;;;;16.60;55.60;;;;;;4882438;29;19964;-56
2021/03/11 13:11:12;;;;;;;;;;;16.50;55.60;;;;;;4882398;29;20204;-60
2021/03/11 13:13:38;;;;;;;;;;;16.70;55.40;;;;;;4882583;29;19914;-59
2021/03/11 13:16:03;;;;;;;;;;;16.70;55.40;;;;;;4882012;29;20298;-60
2021/03/11 13:18:29;;;;;;;;;;;16.80;55.30;;;;;;4882028;29;19923;-62
2021/03/11 13:20:54;;;;;;;;;;;16.90;55.00;;;;;;4881949;29;20149;-58
2021/03/11 13:23:20;;;;;;;;;;;17.40;55.10;;;;;;4881981;29;19907;-59
2021/03/11 13:25:45;;;;;;;;;;;17.30;54.90;;;;;;4881894;29;19967;-59
2021/03/11 13:28:11;;;;;;;;;;;17.30;54.70;;;;;;4881780;29;19912;-60
2021/03/11 13:30:39;;;;;;;;;;;17.20;54.50;;;;;;4881573;29;20383;-57
2021/03/11 13:33:05;;;;;;;;;;;17.80;54.40;;;;;;4881853;29;19908;-59
2021/03/11 13:35:30;;;;;;;;;;;17.60;54.20;;;;;;4882139;29;19908;-61
2021/03/11 13:37:56;;;;;;;;;;;17.70;54.00;;;;;;4881283;29;20038;-54
2021/03/11 13:40:21;;;;;;;;;;;17.60;53.90;;;;;;4881859;29;19908;-54
2021/03/11 13:42:47;;;;;;;;;;;17.80;53.70;;;;;;4881449;29;19914;-55
2021/03/11 13:45:13;;;;;;;;;;;17.60;53.20;;;;;;4881673;29;20371;-51
2021/03/11 13:47:38;;;;;;;;;;;17.80;53.10;;;;;;4881728;29;19950;-58
2021/03/11 13:50:05;;;;;;;;;;;17.70;52.90;;;;;;4882006;29;20335;-57
2021/03/11 13:52:31;;;;;;;;;;;17.80;52.90;;;;;;4882100;29;19920;-59
2021/03/11 13:54:56;;;;;;;;;;;17.70;52.80;;;;;;4881564;29;19908;-59
2021/03/11 13:57:22;;;;;;;;;;;17.70;53.20;;;;;;4881471;29;19963;-60
2021/03/11 13:59:47;;;;;;;;;;;18.10;53.30;;;;;;4881473;29;19908;-59
2021/03/11 14:02:12;;;;;;;;;;;17.70;53.10;;;;;;4881546;29;19943;-59
2021/03/11 14:04:38;;;;;;;;;;;17.90;53.40;;;;;;4881248;29;19912;-58
2021/03/11 14:07:04;;;;;;;;;;;17.60;53.40;;;;;;4881141;29;19919;-59
2021/03/11 14:09:29;;;;;;;;;;;17.80;53.70;;;;;;4881368;29;19908;-58
2021/03/11 14:11:55;;;;;;;;;;;17.60;53.90;;;;;;4881339;29;19907;-59
2021/03/11 14:14:21;;;;;;;;;;;17.50;53.90;;;;;;4881355;29;19911;-60
2021/03/11 14:16:46;;;;;;;;;;;17.70;54.10;;;;;;4880896;29;20423;-58